createdAt,value
2018-09-18T00:01:12.996Z,26.93
2018-09-18T00:04:37.358Z,26.73
2018-09-18T00:08:01.812Z,23.22
2018-09-18T00:11:26.272Z,23.50
2018-09-18T00:14:50.716Z,37.95
2018-09-18T00:18:15.187Z,45.95
2018-09-18T00:21:39.584Z,38.17
2018-09-18T00:25:03.990Z,35.23
2018-09-18T00:28:28.509Z,29.02
2018-09-18T00:31:53.030Z,28.83
2018-09-18T00:35:17.531Z,22.75
2018-09-18T00:38:42.179Z,22.95
2018-09-18T00:42:06.608Z,20.75
2018-09-18T00:45:31.053Z,19.37
2018-09-18T00:48:55.530Z,23.30
2018-09-18T00:52:20.000Z,29.85
2018-09-18T00:55:44.452Z,25.82
2018-09-18T00:59:08.901Z,30.45
2018-09-18T01:02:33.372Z,27.52
2018-09-18T01:05:57.887Z,36.17
2018-09-18T01:09:22.377Z,27.93
2018-09-18T01:12:46.897Z,29.30
2018-09-18T01:16:11.319Z,25.05
2018-09-18T01:19:35.742Z,27.80
2018-09-18T01:23:00.158Z,28.05
2018-09-18T01:26:24.611Z,29.60
2018-09-18T01:29:49.024Z,22.20
2018-09-18T01:33:13.458Z,23.87
2018-09-18T01:36:37.944Z,26.95
2018-09-18T01:40:02.365Z,31.50
2018-09-18T01:43:26.818Z,27.37
2018-09-18T01:46:51.267Z,27.95
2018-09-18T01:50:15.706Z,25.52
2018-09-18T01:53:40.149Z,30.85
2018-09-18T01:57:04.607Z,25.57
2018-09-18T02:00:29.023Z,25.65
2018-09-18T02:03:53.466Z,25.02
2018-09-18T02:07:17.913Z,29.05
2018-09-18T02:10:42.382Z,25.23
2018-09-18T02:14:06.849Z,26.70
2018-09-18T02:17:31.296Z,30.90
2018-09-18T02:20:55.766Z,23.52
2018-09-18T02:24:20.234Z,22.75
2018-09-18T02:27:44.664Z,23.52
2018-09-18T02:31:09.054Z,22.65
2018-09-18T02:34:33.459Z,18.48
2018-09-18T02:37:57.899Z,24.47
2018-09-18T02:41:22.323Z,22.10
2018-09-18T02:44:46.751Z,27.15
2018-09-18T02:48:11.147Z,19.10
2018-09-18T02:51:35.573Z,23.55
2018-09-18T02:55:00.015Z,20.57
2018-09-18T02:58:24.501Z,20.30
2018-09-18T03:01:48.954Z,21.30
2018-09-18T03:05:13.351Z,17.67
2018-09-18T03:08:37.773Z,13.75
2018-09-18T03:12:02.301Z,16.85
2018-09-18T03:15:26.730Z,16.20
2018-09-18T03:18:51.143Z,8.15
2018-09-18T03:22:15.594Z,10.63
2018-09-18T03:25:39.999Z,10.93
2018-09-18T03:29:04.469Z,15.80
2018-09-18T03:32:28.912Z,11.97
2018-09-18T03:35:53.328Z,14.00
2018-09-18T03:39:17.728Z,11.05
2018-09-18T03:42:42.301Z,21.82
2018-09-18T03:46:06.761Z,14.03
2018-09-18T03:49:31.289Z,11.33
2018-09-18T03:52:55.740Z,11.97
2018-09-18T03:56:20.157Z,14.05
2018-09-18T03:59:44.606Z,12.58
2018-09-18T04:03:09.050Z,10.13
2018-09-18T04:06:33.465Z,13.28
2018-09-18T04:09:57.966Z,10.68
2018-09-18T04:13:22.428Z,11.15
2018-09-18T04:16:46.837Z,14.18
2018-09-18T04:20:11.288Z,12.07
2018-09-18T04:23:35.743Z,12.28
2018-09-18T04:27:00.607Z,18.32
2018-09-18T04:30:25.047Z,17.27
2018-09-18T04:33:49.466Z,20.95
2018-09-18T04:37:13.850Z,13.80
2018-09-18T04:40:38.528Z,14.87
2018-09-18T04:44:02.959Z,13.22
2018-09-18T04:47:27.354Z,21.25
2018-09-18T04:50:51.808Z,18.17
2018-09-18T04:54:51.222Z,11.73
2018-09-18T04:58:16.361Z,11.53
2018-09-18T05:01:40.788Z,18.90
2018-09-18T05:05:05.767Z,30.52
2018-09-18T05:08:30.208Z,27.55
2018-09-18T05:11:54.689Z,28.80
2018-09-18T05:15:19.201Z,35.50
2018-09-18T05:18:43.733Z,35.50
2018-09-18T05:22:08.199Z,26.05
2018-09-18T05:25:32.629Z,27.58
2018-09-18T05:28:57.066Z,22.65
2018-09-18T05:32:21.537Z,20.27
2018-09-18T05:35:45.965Z,28.32
2018-09-18T05:39:11.811Z,35.58
2018-09-18T05:42:36.259Z,43.08
2018-09-18T05:46:00.696Z,35.33
2018-09-18T05:49:27.270Z,24.52
2018-09-18T05:52:51.898Z,26.23
2018-09-18T05:56:16.345Z,20.15
2018-09-18T05:59:40.818Z,27.87
2018-09-18T06:03:05.313Z,21.82
2018-09-18T06:06:29.851Z,18.67
2018-09-18T06:09:54.384Z,22.95
2018-09-18T06:13:18.839Z,22.75
2018-09-18T06:16:43.263Z,27.82
2018-09-18T06:20:07.815Z,29.25
2018-09-18T06:23:32.277Z,24.02
2018-09-18T06:26:56.757Z,23.35
2018-09-18T06:30:21.234Z,30.65
2018-09-18T06:33:45.698Z,32.25
2018-09-18T06:37:10.169Z,20.75
2018-09-18T06:40:41.550Z,18.35
2018-09-18T06:44:06.240Z,20.92
2018-09-18T06:47:30.683Z,21.25
2018-09-18T06:50:55.142Z,20.57
2018-09-18T06:54:19.624Z,13.53
2018-09-18T06:57:44.057Z,15.53
2018-09-18T07:01:08.580Z,15.08
2018-09-18T07:04:33.018Z,11.45
2018-09-18T07:07:57.518Z,19.27
2018-09-18T07:11:22.010Z,15.65
2018-09-18T07:14:46.442Z,18.95
2018-09-18T07:18:10.989Z,21.50
2018-09-18T07:21:35.386Z,17.15
2018-09-18T07:25:06.494Z,15.80
2018-09-18T07:28:31.442Z,24.45
2018-09-18T07:31:55.903Z,28.17
2018-09-18T07:35:20.340Z,19.12
2018-09-18T07:38:44.961Z,22.17
2018-09-18T07:42:09.409Z,27.82
2018-09-18T07:45:33.890Z,32.95
2018-09-18T07:49:02.263Z,28.73
2018-09-18T07:52:26.711Z,23.45
2018-09-18T07:55:51.131Z,24.50
2018-09-18T07:59:15.556Z,17.73
2018-09-18T08:02:40.030Z,19.48
2018-09-18T08:06:04.528Z,32.48
2018-09-18T08:09:29.020Z,23.18
2018-09-18T08:12:53.503Z,14.13
2018-09-18T08:16:17.928Z,12.82
2018-09-18T08:19:42.541Z,24.67
2018-09-18T08:23:06.838Z,19.37
2018-09-18T08:26:31.288Z,20.88
2018-09-18T08:29:55.804Z,8.90
2018-09-18T08:33:20.265Z,9.28
2018-09-18T08:36:44.699Z,8.00
2018-09-18T08:40:09.348Z,8.40
2018-09-18T08:43:33.658Z,8.38
2018-09-18T08:46:58.148Z,10.05
2018-09-18T08:50:22.626Z,7.10
2018-09-18T08:53:47.129Z,8.73
2018-09-18T08:57:11.571Z,10.93
2018-09-18T09:00:36.025Z,8.53
2018-09-18T09:04:00.538Z,8.40
2018-09-18T09:07:24.975Z,6.45
2018-09-18T09:10:49.543Z,6.12
2018-09-18T09:14:14.178Z,17.90
2018-09-18T09:17:38.651Z,7.47
2018-09-18T09:21:03.157Z,10.82
2018-09-18T09:24:27.568Z,10.43
2018-09-18T09:27:52.088Z,6.72
2018-09-18T09:31:16.516Z,6.22
2018-09-18T09:34:40.936Z,8.13
2018-09-18T09:38:05.376Z,6.83
2018-09-18T09:41:29.801Z,15.55
2018-09-18T09:44:54.301Z,6.95
2018-09-18T09:48:18.783Z,7.62
2018-09-18T09:51:43.417Z,8.15
2018-09-18T09:55:07.760Z,10.28
2018-09-18T09:58:32.235Z,8.08
2018-09-18T10:02:01.855Z,11.15
2018-09-18T10:05:26.297Z,7.37
2018-09-18T10:08:50.752Z,8.90
2018-09-18T10:12:15.216Z,11.10
2018-09-18T10:15:39.701Z,8.75
2018-09-18T10:19:04.193Z,7.92
2018-09-18T10:22:28.636Z,8.33
2018-09-18T10:25:53.132Z,8.28
2018-09-18T10:29:17.554Z,9.73
2018-09-18T10:32:42.093Z,7.05
2018-09-18T10:36:06.495Z,8.25
2018-09-18T10:39:30.985Z,8.95
2018-09-18T10:42:55.441Z,11.35
2018-09-18T10:46:20.034Z,7.30
2018-09-18T10:49:44.485Z,15.98
2018-09-18T10:53:08.928Z,11.15
2018-09-18T10:56:33.362Z,12.95
2018-09-18T10:59:57.848Z,11.73
2018-09-18T11:03:22.325Z,11.38
2018-09-18T11:06:46.775Z,13.45
2018-09-18T11:10:11.303Z,10.88
2018-09-18T11:13:35.771Z,9.55
2018-09-18T11:17:00.206Z,7.58
2018-09-18T11:20:24.622Z,11.63
2018-09-18T11:23:49.141Z,11.03
2018-09-18T11:27:13.564Z,8.60
2018-09-18T11:30:38.087Z,11.35
2018-09-18T11:34:02.489Z,9.80
2018-09-18T11:37:26.906Z,6.03
2018-09-18T11:40:51.287Z,5.75
2018-09-18T11:44:15.749Z,8.18
2018-09-18T11:47:40.173Z,5.42
2018-09-18T11:51:04.652Z,10.48
2018-09-18T11:54:29.096Z,7.05
2018-09-18T11:57:53.575Z,5.65
2018-09-18T12:01:18.018Z,5.90
2018-09-18T12:04:42.525Z,5.78
2018-09-18T12:08:07.355Z,9.08
2018-09-18T12:11:32.024Z,7.95
2018-09-18T12:14:56.447Z,5.95
2018-09-18T12:18:20.906Z,5.45
2018-09-18T12:21:45.356Z,6.33
2018-09-18T12:25:09.795Z,7.37
2018-09-18T12:28:34.331Z,5.03
2018-09-18T12:31:58.786Z,5.40
2018-09-18T12:35:23.253Z,5.65
2018-09-18T12:38:47.751Z,5.08
2018-09-18T12:42:12.413Z,5.95
2018-09-18T12:45:36.702Z,5.10
2018-09-18T12:49:01.248Z,3.58
2018-09-18T12:52:25.672Z,6.35
2018-09-18T12:55:50.113Z,7.28
2018-09-18T12:59:14.632Z,4.00
2018-09-18T13:02:39.068Z,6.20
2018-09-18T13:06:03.573Z,8.98
2018-09-18T13:09:28.038Z,4.87
2018-09-18T13:12:52.490Z,6.05
2018-09-18T13:16:16.955Z,7.67
2018-09-18T13:19:41.384Z,5.60
2018-09-18T13:23:06.015Z,7.65
2018-09-18T13:26:30.442Z,7.33
2018-09-18T13:29:54.962Z,9.35
2018-09-18T13:33:19.400Z,6.83
2018-09-18T13:36:43.920Z,6.30
2018-09-18T13:40:08.403Z,6.03
2018-09-18T13:43:32.886Z,2.95
2018-09-18T13:46:57.545Z,4.85
2018-09-18T13:50:22.088Z,6.03
2018-09-18T13:53:46.439Z,7.83
2018-09-18T13:57:10.865Z,4.60
2018-09-18T14:00:35.753Z,2.92
2018-09-18T14:04:00.408Z,3.90
2018-09-18T14:07:24.874Z,10.70
2018-09-18T14:10:49.559Z,7.40
2018-09-18T14:14:14.118Z,9.73
2018-09-18T14:17:38.857Z,3.77
2018-09-18T14:21:03.569Z,3.00
2018-09-18T14:24:28.217Z,4.60
2018-09-18T14:27:53.688Z,5.65
2018-09-18T14:31:18.114Z,3.75
2018-09-18T14:34:42.547Z,5.92
2018-09-18T14:38:07.105Z,5.33
2018-09-18T14:41:31.516Z,7.12
2018-09-18T14:44:56.300Z,3.17
2018-09-18T14:48:20.962Z,3.77
2018-09-18T14:51:45.423Z,6.53
2018-09-18T14:55:10.005Z,4.60
2018-09-18T14:58:34.413Z,5.35
2018-09-18T15:01:58.865Z,7.95
2018-09-18T15:05:24.489Z,6.33
2018-09-18T15:08:49.007Z,7.72
2018-09-18T15:12:14.163Z,8.18
2018-09-18T15:15:38.903Z,7.12
2018-09-18T15:19:03.871Z,6.70
2018-09-18T15:22:28.626Z,6.80
2018-09-18T15:25:53.102Z,7.92
2018-09-18T15:29:23.778Z,6.20
2018-09-18T15:32:49.426Z,3.42
2018-09-18T15:36:13.823Z,3.40
2018-09-18T15:39:38.398Z,3.80
2018-09-18T15:43:02.846Z,3.67
2018-09-18T15:46:27.328Z,3.98
2018-09-18T15:53:25.849Z,7.92
2018-09-18T15:56:50.337Z,8.50
2018-09-18T16:00:14.858Z,7.78
2018-09-18T16:03:39.360Z,3.08
2018-09-18T16:07:03.932Z,6.90
2018-09-18T16:10:28.401Z,2.77
2018-09-18T16:13:52.934Z,12.18
2018-09-18T16:17:17.543Z,5.12
2018-09-18T16:20:42.043Z,6.53
2018-09-18T16:24:06.883Z,7.40
2018-09-18T16:27:31.381Z,4.67
2018-09-18T16:30:56.014Z,5.70
2018-09-18T16:34:20.582Z,4.87
2018-09-18T16:37:47.995Z,7.03
2018-09-18T16:41:12.583Z,7.62
2018-09-18T16:44:37.071Z,6.08
2018-09-18T16:48:01.679Z,9.63
2018-09-18T16:51:26.095Z,7.05
2018-09-18T16:54:50.669Z,4.70
2018-09-18T16:58:15.148Z,9.28
2018-09-18T17:01:39.903Z,4.62
2018-09-18T17:05:08.467Z,8.65
2018-09-18T17:08:33.040Z,7.28
2018-09-18T17:11:57.506Z,10.45
2018-09-18T17:15:21.960Z,5.22
2018-09-18T17:18:46.510Z,5.20
2018-09-18T17:22:11.086Z,5.60
2018-09-18T17:25:35.544Z,6.72
2018-09-18T17:29:00.142Z,8.03
2018-09-18T17:32:24.422Z,8.28
2018-09-18T17:35:48.917Z,6.20
2018-09-18T17:39:13.379Z,4.47
2018-09-18T17:42:37.854Z,7.80
2018-09-18T17:46:02.673Z,8.93
2018-09-18T17:49:27.119Z,7.20
2018-09-18T17:52:51.784Z,7.65
2018-09-18T17:56:16.479Z,9.05
2018-09-18T17:59:41.099Z,7.40
2018-09-18T18:03:05.605Z,5.80
2018-09-18T18:06:41.654Z,6.60
2018-09-18T18:10:08.797Z,5.75
2018-09-18T18:13:36.637Z,9.05
2018-09-18T18:17:01.202Z,6.70
2018-09-18T18:20:25.823Z,5.97
2018-09-18T18:23:50.186Z,6.20
2018-09-18T18:27:14.682Z,8.70
2018-09-18T18:30:39.184Z,8.48
2018-09-18T18:34:03.624Z,10.15
2018-09-18T18:37:28.199Z,6.03
2018-09-18T18:40:52.823Z,7.60
2018-09-18T18:44:17.287Z,10.70
2018-09-18T18:47:41.857Z,7.78
2018-09-18T18:51:06.343Z,10.38
2018-09-18T18:54:30.833Z,7.78
2018-09-18T18:57:55.422Z,7.60
2018-09-18T19:01:19.867Z,7.25
2018-09-18T19:04:44.359Z,8.38
2018-09-18T19:08:08.957Z,9.70
2018-09-18T19:11:33.410Z,6.25
2018-09-18T19:14:57.846Z,9.90
2018-09-18T19:18:22.351Z,5.78
2018-09-18T19:21:46.827Z,6.85
2018-09-18T19:25:11.321Z,9.13
2018-09-18T19:28:35.787Z,7.83
2018-09-18T19:32:00.278Z,8.13
2018-09-18T19:35:24.754Z,9.25
2018-09-18T19:38:53.166Z,9.33
2018-09-18T19:42:21.679Z,5.28
2018-09-18T19:45:46.329Z,9.10
2018-09-18T19:49:10.984Z,7.87
2018-09-18T19:52:36.111Z,5.53
2018-09-18T19:56:01.130Z,8.18
2018-09-18T19:59:25.761Z,6.12
2018-09-18T20:02:50.192Z,9.73
2018-09-18T20:06:18.707Z,6.85
2018-09-18T20:09:43.365Z,5.92
2018-09-18T20:13:07.879Z,11.22
2018-09-18T20:16:32.534Z,12.50
2018-09-18T20:19:57.260Z,5.47
2018-09-18T20:23:21.655Z,7.50
2018-09-18T20:26:46.212Z,5.97
2018-09-18T20:30:10.996Z,8.93
2018-09-18T20:33:35.451Z,8.65
2018-09-18T20:36:59.863Z,6.83
2018-09-18T20:40:24.341Z,10.43
2018-09-18T20:43:48.792Z,10.25
2018-09-18T20:47:13.234Z,8.88
2018-09-18T20:50:37.752Z,8.80
2018-09-18T20:54:02.342Z,6.08
2018-09-18T20:57:26.766Z,8.58
2018-09-18T21:00:51.614Z,9.38
2018-09-18T21:04:16.369Z,8.63
2018-09-18T21:07:40.988Z,7.28
2018-09-18T21:11:05.743Z,9.40
2018-09-18T21:14:30.523Z,7.87
2018-09-18T21:17:55.076Z,13.48
2018-09-18T21:21:19.833Z,10.32
2018-09-18T21:24:44.417Z,12.28
2018-09-18T21:28:09.528Z,7.97
2018-09-18T21:31:33.984Z,11.53
2018-09-18T21:34:58.540Z,7.55
2018-09-18T21:38:23.004Z,8.28
2018-09-18T21:41:47.460Z,6.62
2018-09-18T21:45:11.899Z,10.78
2018-09-18T21:48:36.389Z,8.85
2018-09-18T21:52:00.867Z,7.37
2018-09-18T21:55:25.281Z,9.28
2018-09-18T21:58:49.732Z,10.72
2018-09-18T22:02:14.186Z,10.40
2018-09-18T22:05:38.782Z,10.58
2018-09-18T22:09:03.360Z,10.60
2018-09-18T22:12:27.862Z,8.70
2018-09-18T22:15:52.292Z,9.35
2018-09-18T22:19:16.663Z,9.18
2018-09-18T22:22:41.113Z,11.57
2018-09-18T22:26:05.579Z,7.00
2018-09-18T22:29:30.115Z,10.78
2018-09-18T22:32:54.576Z,9.45
2018-09-18T22:36:19.021Z,12.95
2018-09-18T22:39:43.541Z,13.13
2018-09-18T22:43:08.011Z,12.85
2018-09-18T22:46:32.485Z,14.30
2018-09-18T22:49:56.984Z,15.05
2018-09-18T22:53:21.549Z,10.63
2018-09-18T22:56:45.969Z,13.90
2018-09-18T23:00:10.695Z,9.93
2018-09-18T23:03:35.138Z,9.95
2018-09-18T23:06:59.615Z,10.28
2018-09-18T23:10:24.058Z,12.33
2018-09-18T23:13:48.550Z,11.80
2018-09-18T23:17:13.005Z,12.30
2018-09-18T23:20:37.417Z,13.68
2018-09-18T23:24:01.946Z,16.00
2018-09-18T23:27:26.322Z,9.75
2018-09-18T23:30:50.834Z,10.48
2018-09-18T23:34:15.331Z,12.33
2018-09-18T23:37:39.858Z,10.85
2018-09-18T23:41:04.284Z,11.80
2018-09-18T23:44:29.009Z,8.10
2018-09-18T23:47:53.542Z,14.63
2018-09-18T23:51:18.003Z,12.88
2018-09-18T23:54:42.460Z,14.15
2018-09-18T23:58:06.895Z,14.13
